Time;durP1;ratioP1;P1;durP2;ratioP2;P2;SDS_P1;SDS_P2;PMS_P1;PMS_P2;Temp;Humidity;BMP_temperature;BMP_pressure;BME280_temperature;BME280_humidity;BME280_pressure;Samples;Min_cycle;Max_cycle;Signal;HPM_P1;HPM_P2
2023/09/09 00:00:01;;;;;;;1.73;1.63;;;;;;;19.90;100.00;99813.09;5112760;28;20198;-70
2023/09/09 00:02:28;;;;;;;2.07;1.97;;;;;;;19.77;100.00;99823.41;5112869;27;20656;-69
2023/09/09 00:04:55;;;;;;;1.73;1.63;;;;;;;19.80;100.00;99812.84;5113191;28;20188;-69
2023/09/09 00:07:22;;;;;;;1.70;1.60;;;;;;;19.80;100.00;99812.84;5112565;28;20746;-69
2023/09/09 00:09:49;;;;;;;1.23;1.20;;;;;;;19.81;100.00;99816.25;5112483;28;20203;-69
2023/09/09 00:12:17;;;;;;;7.10;1.30;;;;;;;19.87;100.00;99814.09;5112453;28;20775;-69
2023/09/09 00:14:44;;;;;;;1.43;1.33;;;;;;;19.92;100.00;99814.69;5112980;28;20201;-69
2023/09/09 00:17:10;;;;;;;1.60;1.50;;;;;;;19.93;100.00;99808.53;5113228;28;20192;-69
2023/09/09 00:19:37;;;;;;;2.10;1.90;;;;;;;19.95;100.00;99805.00;5112376;28;20206;-69
2023/09/09 00:22:04;;;;;;;1.43;1.43;;;;;;;20.04;100.00;99807.88;5112382;28;20195;-69
2023/09/09 00:24:31;;;;;;;1.60;1.57;;;;;;;20.09;100.00;99797.19;5111089;28;20210;-69
2023/09/09 00:26:59;;;;;;;1.70;1.60;;;;;;;20.11;100.00;99800.50;5112293;28;20715;-69
2023/09/09 00:29:29;;;;;;;1.70;1.10;;;;;;;20.13;100.00;99794.25;5112015;28;20309;-69
2023/09/09 00:31:56;;;;;;;1.30;1.30;;;;;;;20.20;100.00;99799.91;5112342;28;20202;-69
2023/09/09 00:34:22;;;;;;;1.57;1.47;;;;;;;20.22;100.00;99787.66;5112292;28;20247;-69
2023/09/09 00:36:49;;;;;;;1.40;1.40;;;;;;;20.23;100.00;99786.72;5112091;28;20213;-69
2023/09/09 00:39:16;;;;;;;7.20;1.57;;;;;;;20.30;100.00;99795.84;5112082;28;20196;-69
2023/09/09 00:41:42;;;;;;;1.83;1.73;;;;;;;20.35;100.00;99799.00;5111768;28;22394;-69
2023/09/09 00:44:09;;;;;;;2.60;2.07;;;;;;;20.25;100.00;99793.50;5112278;28;20205;-69
2023/09/09 00:46:37;;;;;;;1.10;1.10;;;;;;;20.29;100.00;99794.19;5112024;28;20258;-69
2023/09/09 00:49:05;;;;;;;1.20;1.20;;;;;;;20.25;100.00;99790.91;5111684;28;20250;-69
2023/09/09 00:51:32;;;;;;;1.90;1.80;;;;;;;20.30;100.00;99790.63;5111887;28;20741;-69
2023/09/09 00:53:59;;;;;;;2.20;1.80;;;;;;;20.33;100.00;99787.81;5111431;28;20212;-69
2023/09/09 00:56:26;;;;;;;1.67;1.57;;;;;;;20.38;100.00;99783.19;5111765;28;20218;-70
2023/09/09 00:58:53;;;;;;;1.27;1.27;;;;;;;20.41;100.00;99789.03;5111344;28;20667;-69
2023/09/09 01:01:20;;;;;;;2.00;1.90;;;;;;;20.40;100.00;99779.53;5111837;28;20194;-69
2023/09/09 01:03:53;;;;;;;1.50;1.40;;;;;;;20.47;100.00;99787.78;5111651;28;20191;-69
2023/09/09 01:06:20;;;;;;;1.17;1.17;;;;;;;20.45;100.00;99779.25;5111808;28;20197;-69
2023/09/09 01:08:47;;;;;;;1.60;1.40;;;;;;;20.43;100.00;99778.50;5111420;28;20270;-69
2023/09/09 01:11:15;;;;;;;1.40;1.30;;;;;;;20.41;100.00;99777.78;5111476;28;20254;-69
2023/09/09 01:13:41;;;;;;;1.73;1.63;;;;;;;20.40;100.00;99781.31;5111335;28;20225;-70
2023/09/09 01:16:09;;;;;;;1.73;1.63;;;;;;;20.35;100.00;99768.59;5111385;28;21317;-69
2023/09/09 01:18:35;;;;;;;1.83;1.73;;;;;;;20.36;100.00;99769.41;5111309;28;20209;-69
2023/09/09 01:21:07;;;;;;;1.90;1.80;;;;;;;20.34;100.00;99777.31;5110704;28;20206;-69
2023/09/09 01:23:36;;;;;;;1.23;1.23;;;;;;;20.34;100.00;99768.69;5111302;28;20632;-69
2023/09/09 01:26:03;;;;;;;2.30;1.90;;;;;;;20.28;100.00;99776.88;5111205;28;20204;-69
2023/09/09 01:28:30;;;;;;;2.00;1.90;;;;;;;20.30;100.00;99775.00;5110721;28;20251;-69
2023/09/09 01:30:57;;;;;;;2.30;1.80;;;;;;;20.32;100.00;99779.19;5111087;28;20197;-69
2023/09/09 01:33:24;;;;;;;2.60;1.73;;;;;;;20.34;100.00;99777.31;5111202;28;20724;-69
2023/09/09 01:35:50;;;;;;;1.57;1.57;;;;;;;20.37;100.00;99773.69;5109920;28;20221;-69
2023/09/09 01:38:17;;;;;;;1.87;1.77;;;;;;;20.39;100.00;99769.19;5110612;28;20253;-69
2023/09/09 01:40:45;;;;;;;1.77;1.67;;;;;;;20.44;100.00;99767.16;5111497;28;20628;-69
2023/09/09 01:43:12;;;;;;;1.97;1.87;;;;;;;20.43;100.00;99773.28;5110689;28;20201;-69
2023/09/09 01:45:39;;;;;;;1.50;1.50;;;;;;;20.46;100.00;99767.88;5111221;28;20666;-69
2023/09/09 01:48:06;;;;;;;1.83;1.73;;;;;;;20.42;100.00;99764.63;5110857;28;20262;-69
2023/09/09 01:50:33;;;;;;;2.97;2.17;;;;;;;20.41;100.00;99762.16;5110569;28;20266;-69
2023/09/09 01:53:00;;;;;;;2.00;1.80;;;;;;;20.42;100.00;99769.84;5111275;28;20548;-69
2023/09/09 01:55:26;;;;;;;2.57;2.47;;;;;;;20.43;100.00;99768.06;5111221;28;20224;-69
2023/09/09 01:57:54;;;;;;;2.00;1.90;;;;;;;20.44;100.00;99769.75;5110940;28;20209;-69
2023/09/09 02:00:21;;;;;;;1.83;1.73;;;;;;;20.44;100.00;99767.16;5110596;28;20201;-69
2023/09/09 02:02:48;;;;;;;1.60;1.50;;;;;;;20.40;100.00;99752.66;5110873;28;20254;-69
2023/09/09 02:05:15;;;;;;;1.70;1.60;;;;;;;20.49;100.00;99767.69;5110647;28;20200;-69
2023/09/09 02:07:41;;;;;;;2.13;2.03;;;;;;;20.45;100.00;99761.03;5110542;28;20251;-69
2023/09/09 02:10:09;;;;;;;1.67;1.57;;;;;;;20.51;100.00;99763.22;5110768;28;20197;-69
2023/09/09 02:12:35;;;;;;;1.60;1.50;;;;;;;20.53;100.00;99769.16;5110688;28;20648;-69
2023/09/09 02:15:05;;;;;;;2.07;1.97;;;;;;;20.55;100.00;99756.84;5110818;28;20201;-69
2023/09/09 02:17:31;;;;;;;1.27;1.27;;;;;;;20.56;100.00;99766.34;5109090;28;20217;-69
2023/09/09 02:19:58;;;;;;;2.10;2.00;;;;;;;20.58;100.00;99759.25;5110736;28;20209;-69
2023/09/09 02:22:25;;;;;;;1.63;1.53;;;;;;;20.59;100.00;99760.94;5110354;28;20256;-69
2023/09/09 02:24:56;;;;;;;1.30;1.20;;;;;;;20.59;100.00;99750.50;5110455;28;20195;-69
2023/09/09 02:27:23;;;;;;;1.60;1.60;;;;;;;20.51;100.00;99747.59;5110754;28;20283;-69
2023/09/09 02:29:50;;;;;;;1.40;1.30;;;;;;;20.58;100.00;99759.25;5109944;28;20585;-69
2023/09/09 02:32:18;;;;;;;1.77;1.73;;;;;;;20.58;100.00;99764.47;5110512;28;20686;-69
2023/09/09 02:34:45;;;;;;;2.23;1.00;;;;;;;20.57;100.00;99762.81;5110444;28;20271;-69
2023/09/09 02:37:16;;;;;;;1.53;1.53;;;;;;;20.44;100.00;99735.91;5110893;28;20644;-69
2023/09/09 02:39:43;;;;;;;1.83;1.73;;;;;;;20.53;100.00;99758.72;5110174;28;20257;-69
2023/09/09 02:42:13;;;;;;;1.93;1.83;;;;;;;20.52;100.00;99758.84;5110634;28;20566;-69
2023/09/09 02:44:40;;;;;;;1.57;1.57;;;;;;;20.49;100.00;99759.88;5110150;28;20301;-69
2023/09/09 02:47:07;;;;;;;1.80;1.73;;;;;;;20.48;100.00;99758.22;5110940;28;20205;-69
2023/09/09 02:49:35;;;;;;;1.20;1.20;;;;;;;20.46;100.00;99760.06;5113850;28;20197;-69
2023/09/09 02:52:02;;;;;;;1.30;1.30;;;;;;;20.44;100.00;99767.16;5113935;28;20198;-69
2023/09/09 02:54:28;;;;;;;3.80;2.10;;;;;;;20.39;100.00;99764.84;5113803;28;20206;-69
2023/09/09 02:56:55;;;;;;;1.13;1.03;;;;;;;20.36;100.00;99764.19;5113874;28;20219;-69
2023/09/09 02:59:24;;;;;;;1.07;1.07;;;;;;;20.34;100.00;99755.66;5114088;28;20254;-69
2023/09/09 03:01:51;;;;;;;2.07;1.97;;;;;;;20.31;100.00;99756.69;5114044;28;20199;-69
2023/09/09 03:04:19;;;;;;;1.77;1.67;;;;;;;20.29;100.00;99755.13;5114203;28;20221;-69
2023/09/09 03:06:47;;;;;;;1.53;1.40;;;;;;;20.25;100.00;99746.66;5113723;28;20573;-69
2023/09/09 03:09:14;;;;;;;2.47;2.37;;;;;;;20.21;100.00;99746.94;5113451;28;20727;-69
2023/09/09 03:11:41;;;;;;;5.23;1.90;;;;;;;20.13;100.00;99751.81;5113822;28;20669;-69
2023/09/09 03:14:08;;;;;;;2.13;1.43;;;;;;;20.08;100.00;99748.63;5114190;28;20734;-69
2023/09/09 03:16:35;;;;;;;1.80;1.70;;;;;;;20.04;100.00;99747.16;5113886;28;20250;-69
2023/09/09 03:19:02;;;;;;;1.67;1.57;;;;;;;20.02;100.00;99754.25;5113700;28;20202;-70
2023/09/09 03:21:29;;;;;;;2.17;2.07;;;;;;;19.98;100.00;99748.38;5112865;28;20567;-69
2023/09/09 03:23:57;;;;;;;5.17;1.57;;;;;;;19.93;100.00;99751.28;5113629;28;20251;-70
2023/09/09 03:26:24;;;;;;;1.67;1.67;;;;;;;19.87;100.00;99750.84;5113927;28;20195;-70
2023/09/09 03:28:51;;;;;;;2.17;1.97;;;;;;;19.82;100.00;99747.69;5113624;28;20202;-69
2023/09/09 03:31:18;;;;;;;2.53;2.33;;;;;;;19.81;100.00;99746.84;5113057;28;20197;-69
2023/09/09 03:33:45;;;;;;;1.90;1.80;;;;;;;19.78;100.00;99747.03;5113281;28;20239;-69
2023/09/09 03:36:11;;;;;;;2.70;1.47;;;;;;;19.75;100.00;99739.41;5113086;28;20255;-69
2023/09/09 03:38:38;;;;;;;1.83;1.63;;;;;;;19.74;100.00;99748.16;5113355;28;20264;-69
2023/09/09 03:41:07;;;;;;;1.60;1.50;;;;;;;19.44;100.00;99698.03;5113139;28;20201;-69
2023/09/09 03:43:34;;;;;;;2.10;2.00;;;;;;;19.70;100.00;99749.28;5112816;28;20254;-69
2023/09/09 03:46:01;;;;;;;2.07;1.97;;;;;;;19.67;100.00;99749.47;5112992;27;20211;-69
2023/09/09 03:48:28;;;;;;;4.63;2.23;;;;;;;19.66;100.00;99754.75;5113273;28;20199;-69
2023/09/09 03:50:59;;;;;;;2.97;2.60;;;;;;;19.64;100.00;99754.88;5112799;28;20209;-69
2023/09/09 03:53:26;;;;;;;2.17;2.07;;;;;;;19.61;100.00;99755.03;5112246;28;20235;-69
2023/09/09 03:55:52;;;;;;;1.87;1.77;;;;;;;19.59;100.00;99759.50;5112727;28;20195;-69
2023/09/09 03:58:20;;;;;;;1.60;1.50;;;;;;;19.47;100.00;99762.03;5112767;28;20200;-70
2023/09/09 04:00:47;;;;;;;3.93;2.13;;;;;;;19.42;100.00;99759.69;5112252;28;20657;-69
2023/09/09 04:03:14;;;;;;;1.97;1.97;;;;;;;19.42;100.00;99759.69;5112888;28;20332;-69
2023/09/09 04:05:41;;;;;;;2.10;2.00;;;;;;;19.40;100.00;99761.56;5112685;28;20200;-69
2023/09/09 04:08:09;;;;;;;7.93;4.83;;;;;;;19.31;100.00;99747.34;5112629;28;20198;-69
2023/09/09 04:10:36;;;;;;;26.07;9.47;;;;;;;19.30;100.00;99752.59;5112510;28;20260;-69
2023/09/09 04:13:03;;;;;;;10.87;4.97;;;;;;;19.27;100.00;99755.41;5111126;28;20224;-69
2023/09/09 04:15:31;;;;;;;4.53;4.23;;;;;;;19.23;100.00;99759.94;5112273;28;20219;-69
2023/09/09 04:17:58;;;;;;;2.50;2.30;;;;;;;19.23;100.00;99764.28;5112496;27;20221;-69
2023/09/09 04:20:25;;;;;;;2.33;2.13;;;;;;;19.14;100.00;99749.25;5112325;28;20624;-69
2023/09/09 04:22:51;;;;;;;4.27;2.10;;;;;;;19.22;100.00;99762.66;5111337;28;20198;-69
2023/09/09 04:25:18;;;;;;;2.00;1.90;;;;;;;19.01;100.00;99717.13;5112267;28;20681;-69
2023/09/09 04:27:45;;;;;;;4.17;2.20;;;;;;;19.26;100.00;99764.09;5112289;28;20200;-69
2023/09/09 04:30:13;;;;;;;1.93;1.83;;;;;;;19.27;100.00;99766.63;5112245;28;20199;-68
2023/09/09 04:32:41;;;;;;;3.90;2.03;;;;;;;19.30;100.00;99771.66;5112184;28;20192;-69
2023/09/09 04:35:08;;;;;;;1.90;1.80;;;;;;;19.36;100.00;99762.63;5111418;28;20196;-69
2023/09/09 04:37:35;;;;;;;3.63;2.33;;;;;;;19.43;100.00;99761.38;5111958;28;20218;-69
2023/09/09 04:40:05;;;;;;;2.13;1.93;;;;;;;19.50;100.00;99757.47;5111887;28;20203;-69
2023/09/09 04:42:31;;;;;;;3.03;2.90;;;;;;;19.54;100.00;99752.94;5110953;28;20203;-69
2023/09/09 04:44:59;;;;;;;1.97;1.87;;;;;;;19.58;100.00;99760.44;5110909;28;20202;-68
2023/09/09 04:47:26;;;;;;;4.43;2.83;;;;;;;19.64;100.00;99757.47;5111463;28;20199;-68
2023/09/09 04:49:55;;;;;;;2.40;2.30;;;;;;;19.75;100.00;99762.00;5111814;28;20264;-68
2023/09/09 04:52:22;;;;;;;2.60;2.37;;;;;;;19.88;100.00;99763.75;5111934;28;20231;-67
2023/09/09 04:54:49;;;;;;;2.43;2.33;;;;;;;20.05;100.00;99748.84;5111288;28;20645;-69
2023/09/09 04:57:16;;;;;;;2.03;1.93;;;;;;;20.12;100.00;99750.97;5111661;28;20269;-69
2023/09/09 04:59:43;;;;;;;2.47;2.27;;;;;;;20.17;100.00;99753.25;5111603;28;20225;-68
2023/09/09 05:02:10;;;;;;;1.97;1.87;;;;;;;20.20;100.00;99748.69;5111668;28;20611;-69
2023/09/09 05:04:37;;;;;;;6.87;1.50;;;;;;;20.29;100.00;99744.72;5111226;28;20198;-68
2023/09/09 05:07:05;;;;;;;1.87;1.77;;;;;;;20.45;100.00;99752.38;5111703;28;20289;-68
2023/09/09 05:09:32;;;;;;;2.73;1.90;;;;;;;20.54;100.00;99750.00;5111356;28;20254;-68
2023/09/09 05:11:58;;;;;;;8.73;1.90;;;;;;;20.75;100.00;99745.97;5110713;28;20287;-68
2023/09/09 05:14:25;;;;;;;1.40;1.40;;;;;;;20.90;100.00;99744.13;5111193;28;20555;-69
2023/09/09 05:16:52;;;;;;;1.67;1.67;;;;;;;21.11;100.00;99757.50;5111030;28;20211;-68
2023/09/09 05:19:19;;;;;;;2.27;2.17;;;;;;;21.30;100.00;99753.53;5111458;28;20659;-69
2023/09/09 05:21:45;;;;;;;3.07;1.87;;;;;;;21.53;100.00;99753.72;5111356;28;20199;-68
2023/09/09 05:24:14;;;;;;;1.90;1.80;;;;;;;21.74;100.00;99753.06;5111175;28;20206;-69
2023/09/09 05:26:40;;;;;;;1.87;1.77;;;;;;;21.87;100.00;99751.25;5110349;28;20197;-68
2023/09/09 05:29:07;;;;;;;2.47;2.10;;;;;;;22.11;100.00;99745.25;5110574;28;20198;-69
2023/09/09 05:31:34;;;;;;;2.23;2.03;;;;;;;22.28;100.00;99750.09;5111364;28;20259;-69
2023/09/09 05:34:01;;;;;;;2.17;2.07;;;;;;;22.43;100.00;99746.34;5111475;28;20610;-68
2023/09/09 05:36:28;;;;;;;2.00;1.90;;;;;;;22.66;100.00;99748.16;5111053;28;20203;-68
2023/09/09 05:38:59;;;;;;;3.20;1.47;;;;;;;22.88;99.72;99758.66;5111039;28;20232;-66
2023/09/09 05:41:28;;;;;;;3.67;2.13;;;;;;;23.05;99.17;99757.41;5111170;28;20190;-66
2023/09/09 05:43:55;;;;;;;2.60;2.33;;;;;;;23.19;98.08;99761.59;5111060;28;20234;-66
2023/09/09 05:46:23;;;;;;;2.50;2.30;;;;;;;23.43;97.12;99763.16;5110391;28;20682;-66
2023/09/09 05:48:49;;;;;;;3.90;2.03;;;;;;;23.65;95.52;99762.31;5107286;28;20198;-68
2023/09/09 05:51:16;;;;;;;1.70;1.60;;;;;;;23.87;94.75;99762.34;5110141;28;20202;-66
2023/09/09 05:53:43;;;;;;;2.20;2.10;;;;;;;24.15;93.76;99757.53;5110298;28;20251;-66
2023/09/09 05:56:10;;;;;;;2.47;2.37;;;;;;;24.24;90.86;99759.41;5109190;28;20514;-70
2023/09/09 05:58:38;;;;;;;1.80;1.70;;;;;;;24.34;90.81;99757.69;5108626;28;20458;-64
2023/09/09 06:01:04;;;;;;;1.90;1.80;;;;;;;24.61;90.02;99750.22;5110097;28;20252;-64
2023/09/09 06:03:31;;;;;;;1.73;1.63;;;;;;;24.87;88.71;99756.78;5109723;28;20727;-64
2023/09/09 06:05:58;;;;;;;1.77;1.67;;;;;;;25.11;87.64;99758.28;5110348;28;20662;-64
2023/09/09 06:08:25;;;;;;;2.00;1.90;;;;;;;25.33;86.87;99758.16;5108598;28;20199;-64
2023/09/09 06:10:52;;;;;;;2.33;2.20;;;;;;;25.51;83.15;99756.59;5108289;28;20626;-63
2023/09/09 06:13:18;;;;;;;2.23;2.13;;;;;;;25.69;83.29;99760.25;5109702;28;20291;-64
2023/09/09 06:15:46;;;;;;;1.50;1.50;;;;;;;25.79;82.93;99761.13;5108248;28;20571;-64
2023/09/09 06:18:13;;;;;;;1.87;1.53;;;;;;;25.84;83.57;99750.22;5107216;28;20218;-64
2023/09/09 06:20:46;;;;;;;1.17;1.17;;;;;;;26.04;81.93;99765.88;5107792;28;20206;-64
2023/09/09 06:23:12;;;;;;;1.60;1.50;;;;;;;26.08;80.79;99746.25;5108819;28;20198;-64
2023/09/09 06:25:39;;;;;;;1.20;1.20;;;;;;;26.18;80.36;99772.56;5111425;28;21635;-64
2023/09/09 06:28:07;;;;;;;1.60;1.53;;;;;;;26.30;81.37;99768.03;5113679;28;20202;-64
2023/09/09 06:30:34;;;;;;;1.77;1.67;;;;;;;26.46;79.23;99768.31;5114367;28;20551;-64
2023/09/09 06:33:04;;;;;;;1.37;1.37;;;;;;;26.70;75.93;99768.72;5112213;28;20191;-64
2023/09/09 06:35:30;;;;;;;2.13;1.27;;;;;;;26.82;76.11;99782.59;5110188;28;20579;-64
2023/09/09 06:37:57;;;;;;;1.30;1.30;;;;;;;26.97;77.76;99770.66;5113733;28;20272;-64
2023/09/09 06:40:24;;;;;;;0.90;0.90;;;;;;;26.95;75.25;99772.59;5112622;28;20726;-64
2023/09/09 06:42:51;;;;;;;0.90;0.90;;;;;;;26.96;74.43;99769.84;5113120;28;20734;-64
2023/09/09 06:45:20;;;;;;;0.97;0.97;;;;;;;27.17;73.48;99774.09;5113631;28;20206;-64
2023/09/09 06:47:46;;;;;;;1.10;1.10;;;;;;;27.31;71.73;99778.88;5113431;28;20229;-64
2023/09/09 06:50:15;;;;;;;0.87;0.87;;;;;;;27.29;70.57;99780.84;5112299;28;20735;-67
2023/09/09 06:52:41;;;;;;;1.08;1.08;;;;;;;27.28;70.76;99779.16;5109721;28;20834;-64
2023/09/09 06:55:09;;;;;;;1.10;1.10;;;;;;;27.51;70.75;99785.78;5106404;28;20267;-65
2023/09/09 06:57:36;;;;;;;0.90;0.90;;;;;;;27.64;69.14;99775.75;5111610;28;20218;-64
2023/09/09 07:00:04;;;;;;;1.00;1.00;;;;;;;27.63;67.77;99787.25;5110842;28;20434;-67
2023/09/09 07:02:31;;;;;;;0.80;0.80;;;;;;;27.60;66.52;99777.84;5108709;28;20289;-67
2023/09/09 07:04:57;;;;;;;1.00;1.00;;;;;;;27.31;67.92;99781.50;5112571;28;20681;-67
2023/09/09 07:07:25;;;;;;;1.27;1.10;;;;;;;27.22;69.26;99785.00;5111568;28;20206;-67
2023/09/09 07:09:52;;;;;;;0.90;0.90;;;;;;;26.98;71.24;99773.16;5111137;28;20619;-66
2023/09/09 07:12:19;;;;;;;5.20;1.27;;;;;;;26.99;69.56;99774.81;5111509;28;20230;-67
2023/09/09 07:14:45;;;;;;;3.43;1.13;;;;;;;27.10;70.70;99779.94;5108348;28;20438;-66
2023/09/09 07:17:12;;;;;;;1.20;0.90;;;;;;;27.29;69.70;99781.69;5110779;28;20620;-67
2023/09/09 07:19:39;;;;;;;1.67;0.93;;;;;;;27.37;69.95;99773.88;5111461;28;20654;-68
2023/09/09 07:22:06;;;;;;;0.80;0.80;;;;;;;27.49;67.23;99779.84;5111786;28;20206;-66
2023/09/09 07:24:34;;;;;;;1.00;1.00;;;;;;;27.66;67.74;99773.78;5111362;28;20199;-66
2023/09/09 07:27:03;;;;;;;0.70;0.70;;;;;;;27.76;70.55;99779.00;5111667;28;20203;-67
2023/09/09 07:29:30;;;;;;;1.20;1.10;;;;;;;27.89;68.52;99780.34;5113389;28;20727;-66
2023/09/09 07:31:57;;;;;;;0.80;0.80;;;;;;;27.95;66.06;99774.47;5112395;28;20194;-66
2023/09/09 07:34:24;;;;;;;0.70;0.70;;;;;;;28.22;64.60;99786.00;5113075;28;20620;-67
2023/09/09 07:36:51;;;;;;;0.80;0.80;;;;;;;28.28;64.75;99780.13;5112852;28;20267;-67
2023/09/09 07:39:18;;;;;;;1.10;1.07;;;;;;;28.47;64.71;99779.97;5112685;28;20221;-66
2023/09/09 07:41:46;;;;;;;0.87;0.87;;;;;;;28.60;62.35;99781.25;5111642;28;20255;-66
2023/09/09 07:44:13;;;;;;;2.57;1.00;;;;;;;28.57;62.43;99775.47;5112080;28;20203;-67
2023/09/09 07:46:40;;;;;;;2.25;1.08;;;;;;;28.71;62.10;99766.22;5112697;28;20620;-67
2023/09/09 07:49:07;;;;;;;1.50;0.90;;;;;;;28.86;63.40;99769.94;5112737;28;20199;-66
2023/09/09 07:51:34;;;;;;;0.95;0.95;;;;;;;29.06;61.43;99766.13;5111997;28;20198;-67
2023/09/09 07:54:00;;;;;;;0.73;0.73;;;;;;;29.15;59.56;99775.75;5112459;28;20198;-66
2023/09/09 07:56:27;;;;;;;0.80;0.80;;;;;;;29.30;60.73;99776.91;5112595;28;20967;-67
2023/09/09 07:58:55;;;;;;;0.63;0.63;;;;;;;29.39;59.83;99772.47;5112701;28;20267;-66
2023/09/09 08:01:22;;;;;;;0.90;0.90;;;;;;;29.43;57.68;99774.66;5112882;28;20198;-66
2023/09/09 08:03:48;;;;;;;0.88;0.88;;;;;;;29.22;61.39;99760.13;5113095;28;20618;-67
2023/09/09 08:06:16;;;;;;;0.83;0.83;;;;;;;29.33;60.69;99773.94;5112296;28;20275;-67
2023/09/09 08:08:42;;;;;;;0.73;0.73;;;;;;;29.28;60.06;99778.03;5112861;28;20678;-67
2023/09/09 08:11:09;;;;;;;0.90;0.90;;;;;;;29.26;56.69;99777.34;5112456;28;20211;-66
2023/09/09 08:13:36;;;;;;;0.70;0.70;;;;;;;29.30;54.90;99773.44;5112186;28;20313;-67
2023/09/09 08:16:04;;;;;;;0.63;0.63;;;;;;;29.37;52.81;99777.91;5112682;28;20199;-67
2023/09/09 08:18:31;;;;;;;1.27;1.13;;;;;;;29.38;52.80;99779.56;5112832;28;20211;-67
2023/09/09 08:20:58;;;;;;;2.92;0.70;;;;;;;29.42;53.73;99778.28;5112751;28;20198;-67
2023/09/09 08:23:25;;;;;;;0.77;0.77;;;;;;;29.21;53.28;99774.34;5112395;28;20203;-66
2023/09/09 08:25:51;;;;;;;0.90;0.90;;;;;;;29.02;53.03;99762.97;5112733;28;20811;-67
2023/09/09 08:28:18;;;;;;;0.95;0.80;;;;;;;29.28;50.14;99775.38;5112020;28;20255;-67
2023/09/09 08:30:45;;;;;;;0.73;0.73;;;;;;;29.44;56.40;99765.72;5112090;28;20640;-67
2023/09/09 08:33:13;;;;;;;1.00;1.00;;;;;;;29.38;53.57;99773.47;5111821;28;20205;-66
2023/09/09 08:35:39;;;;;;;0.45;0.45;;;;;;;29.26;52.52;99770.28;5111964;28;20662;-67
2023/09/09 08:38:06;;;;;;;0.82;0.80;;;;;;;29.24;51.74;99763.47;5112121;28;20229;-67
2023/09/09 08:40:38;;;;;;;0.70;0.70;;;;;;;29.27;52.89;99763.19;5111759;28;20210;-66
2023/09/09 08:43:14;;;;;;;0.50;0.50;;;;;;;29.39;52.11;99772.47;5112150;28;20251;-67
2023/09/09 08:45:44;;;;;;;0.90;0.90;;;;;;;29.21;47.38;99774.34;5111620;28;20194;-67
2023/09/09 08:48:18;;;;;;;2.88;0.70;;;;;;;29.23;48.27;99769.72;5112349;28;20195;-67
2023/09/09 08:50:47;;;;;;;1.10;1.10;;;;;;;29.11;46.40;99764.69;5112040;28;20198;-66
2023/09/09 08:53:16;;;;;;;1.90;0.73;;;;;;;29.12;45.53;99763.72;5112371;28;20218;-66
2023/09/09 08:55:42;;;;;;;0.60;0.60;;;;;;;28.75;48.49;99757.84;5111832;28;20209;-67
2023/09/09 08:58:10;;;;;;;0.60;0.60;;;;;;;28.46;47.84;99759.88;5111799;28;20218;-67
2023/09/09 09:00:37;;;;;;;0.80;0.80;;;;;;;28.72;48.11;99757.31;5111587;28;20694;-66
2023/09/09 09:03:05;;;;;;;0.55;0.55;;;;;;;28.99;47.40;99754.53;5111815;28;20202;-67
2023/09/09 09:05:36;;;;;;;1.30;0.77;;;;;;;29.04;48.19;99750.47;5110937;28;20194;-67
2023/09/09 09:08:04;;;;;;;0.73;0.73;;;;;;;29.11;46.40;99759.41;5110980;28;20305;-67
2023/09/09 09:10:31;;;;;;;0.60;0.60;;;;;;;29.17;48.68;99737.69;5111493;28;20575;-66
2023/09/09 09:12:58;;;;;;;0.60;0.60;;;;;;;29.42;45.82;99753.69;5111647;28;20275;-67
2023/09/09 09:15:25;;;;;;;0.68;0.68;;;;;;;29.47;44.44;99754.00;5112213;28;20736;-66
2023/09/09 09:17:52;;;;;;;0.68;0.68;;;;;;;29.46;45.78;99747.09;5111664;28;20219;-66
2023/09/09 09:20:26;;;;;;;0.50;0.50;;;;;;;29.39;42.83;99757.47;5111746;28;20263;-66
2023/09/09 09:22:58;;;;;;;0.55;0.55;;;;;;;29.57;44.11;99752.09;5111966;28;20282;-67
2023/09/09 09:25:26;;;;;;;0.80;0.80;;;;;;;29.70;44.59;99749.81;5111852;28;20263;-66
2023/09/09 09:27:56;;;;;;;0.60;0.60;;;;;;;29.75;44.28;99742.25;5111477;28;20241;-66
2023/09/09 09:30:24;;;;;;;0.40;0.40;;;;;;;30.11;44.04;99748.97;5111217;28;20314;-67
2023/09/09 09:32:55;;;;;;;0.57;0.57;;;;;;;30.10;43.43;99731.47;5111226;28;20286;-66
2023/09/09 09:35:25;;;;;;;0.60;0.60;;;;;;;29.92;43.72;99725.47;5111655;28;20268;-67
2023/09/09 09:37:54;;;;;;;0.50;0.50;;;;;;;29.93;41.48;99745.66;5111433;28;20244;-67
2023/09/09 09:40:21;;;;;;;0.50;0.50;;;;;;;29.82;43.04;99731.88;5111538;28;20187;-67
2023/09/09 09:42:48;;;;;;;0.50;0.50;;;;;;;29.84;42.75;99736.03;5111546;28;20662;-66
2023/09/09 09:45:15;;;;;;;0.65;0.65;;;;;;;29.83;42.11;99713.22;5111434;28;20199;-66
2023/09/09 09:47:43;;;;;;;0.77;0.77;;;;;;;29.94;44.28;99722.69;5111193;28;20194;-67
2023/09/09 09:50:18;;;;;;;0.77;0.75;;;;;;;30.11;44.22;99727.81;5111138;28;20604;-66
2023/09/09 09:52:48;;;;;;;0.70;0.47;;;;;;;30.08;41.62;99730.78;5111590;28;20627;-67
2023/09/09 09:55:19;;;;;;;0.75;0.75;;;;;;;30.15;41.54;99723.88;5111384;28;20277;-67
2023/09/09 09:57:47;;;;;;;0.50;0.50;;;;;;;30.16;39.60;99720.25;5112985;28;20210;-66
2023/09/09 10:00:15;;;;;;;0.70;0.70;;;;;;;29.97;42.01;99715.25;5115032;28;20244;-67
2023/09/09 10:02:42;;;;;;;0.60;0.60;;;;;;;30.09;40.87;99719.25;5115977;28;20594;-66
2023/09/09 10:05:13;;;;;;;0.85;0.85;;;;;;;30.16;39.00;99714.13;5115411;28;20739;-66
2023/09/09 10:07:43;;;;;;;0.50;0.50;;;;;;;29.79;38.81;99722.44;5115624;28;20194;-67
2023/09/09 10:10:13;;;;;;;0.40;0.40;;;;;;;29.55;37.77;99715.28;5115298;28;20198;-67
2023/09/09 10:12:49;;;;;;;0.40;0.40;;;;;;;29.53;36.33;99721.72;5115321;28;20226;-66
2023/09/09 10:15:17;;;;;;;0.60;0.60;;;;;;;29.07;36.03;99678.88;5115296;28;20206;-67
2023/09/09 10:17:44;;;;;;;0.60;0.60;;;;;;;28.83;36.73;99699.84;5115395;28;20250;-67
2023/09/09 10:20:12;;;;;;;0.60;0.60;;;;;;;28.98;37.00;99711.47;5114927;28;20697;-67
2023/09/09 10:22:40;;;;;;;0.68;0.68;;;;;;;29.11;39.84;99706.59;5115161;28;20244;-66
2023/09/09 10:25:10;;;;;;;0.68;0.68;;;;;;;28.92;37.05;99696.25;5114916;28;20190;-66
2023/09/09 10:27:38;;;;;;;0.75;0.75;;;;;;;28.89;37.76;99701.84;5115024;28;20627;-67
2023/09/09 10:30:08;;;;;;;0.60;0.60;;;;;;;28.69;37.23;99695.13;5112286;28;20666;-67
2023/09/09 10:32:36;;;;;;;0.40;0.40;;;;;;;28.76;37.21;99690.88;5115266;28;20244;-66
2023/09/09 10:35:05;;;;;;;0.47;0.47;;;;;;;28.88;37.13;99694.94;5114971;28;20281;-67
2023/09/09 10:37:34;;;;;;;0.50;0.50;;;;;;;29.18;36.37;99691.78;5115364;28;20191;-66
2023/09/09 10:40:03;;;;;;;0.55;0.55;;;;;;;29.42;36.90;99683.19;5114957;28;20240;-66
2023/09/09 10:42:31;;;;;;;0.60;0.60;;;;;;;29.25;34.20;99684.09;5114823;28;20285;-67
2023/09/09 10:45:27;;;;;;;1.50;0.50;;;;;;;28.99;32.48;99681.47;5114877;28;20285;-66
2023/09/09 10:47:56;;;;;;;0.65;0.65;;;;;;;29.04;31.36;99684.47;5109805;28;20689;-66
2023/09/09 10:50:23;;;;;;;0.50;0.50;;;;;;;29.12;32.44;99681.03;5114228;28;20206;-66
2023/09/09 10:53:14;;;;;;;0.50;0.50;;;;;;;29.34;32.90;99664.66;5114709;28;20199;-66
2023/09/09 10:55:40;;;;;;;1.65;0.60;;;;;;;29.41;31.11;99672.75;5114623;28;20195;-67
2023/09/09 10:58:07;;;;;;;0.35;0.35;;;;;;;29.10;32.30;99641.59;5114320;28;20198;-66
2023/09/09 11:00:40;;;;;;;0.40;0.40;;;;;;;29.35;31.34;99665.47;5114228;28;20658;-66
2023/09/09 11:03:12;;;;;;;0.40;0.40;;;;;;;29.56;33.48;99657.97;5114558;28;20273;-66
2023/09/09 11:05:58;;;;;;;1.73;0.57;;;;;;;29.79;35.44;99653.72;5114562;28;20201;-66
2023/09/09 11:08:29;;;;;;;0.35;0.35;;;;;;;29.47;32.17;99657.09;5113604;28;20725;-67
2023/09/09 11:11:09;;;;;;;0.65;0.65;;;;;;;29.15;35.47;99639.28;5114368;28;20199;-66
2023/09/09 11:13:50;;;;;;;0.57;0.57;;;;;;;29.20;35.66;99625.63;5113915;28;20264;-65
2023/09/09 11:16:30;;;;;;;0.65;0.65;;;;;;;29.32;34.13;99652.59;5114284;28;20612;-66
2023/09/09 11:18:58;;;;;;;0.40;0.40;;;;;;;29.33;36.82;99646.34;5107867;28;20686;-66
2023/09/09 11:21:25;;;;;;;0.73;0.73;;;;;;;29.34;34.90;99629.50;5113458;28;20194;-66
2023/09/09 11:23:52;;;;;;;0.63;0.55;;;;;;;29.50;36.15;99643.56;5113547;28;20191;-67
2023/09/09 11:26:19;;;;;;;0.73;0.55;;;;;;;29.60;32.58;99646.06;5114053;28;20195;-66
2023/09/09 11:28:47;;;;;;;0.50;0.50;;;;;;;29.68;32.75;99643.47;5113936;28;20637;-66
2023/09/09 11:31:14;;;;;;;0.45;0.45;;;;;;;29.79;31.91;99637.84;5114138;28;20259;-66